KBIL/BIL METAR and TAF weather

Enter ICAO airport designator
Station Type Date Time Source
KBIL METAR 2018/04/21 10:53 UTC NOAA

KBIL 211053Z 22008KT 10SM CLR 06/02 A3007 RMK AO2 SLP178 T00560017


Station Type Date Time Source
KBIL Decoded METAR 2018/04/21 10:53 UTC NOAA

LOGAN INTERNATIONAL AIRPORT, MT, United States (KBIL) 45-49N 108-33W 1091M
Apr 21, 2018 - 06:53 AM EDT / 2018.04.21 1053 UTC
Wind: from the SW (220 degrees) at 9 MPH (8 KT):0
Visibility: 10 mile(s):0
Sky conditions: clear
Temperature: 42.1 F (5.6 C)
Dew Point: 35.1 F (1.7 C)
Relative Humidity: 75%
Pressure (altimeter): 30.07 in. Hg (1018 hPa)
ob: KBIL 211053Z 22008KT 10SM CLR 06/02 A3007 RMK AO2 SLP178 T00560017
cycle: 11

Station Type Date Time Source
KBIL TAF 2018/04/21 12:24 UTC NOAA

TAF KBIL 211123Z 2112/2212 24009KT P6SM SCT080 SCT150
FM220100 32011KT P6SM BKN150
FM220900 02006KT P6SM BKN100


Example: see airport list